• Join FlightAware (Why Join?)
  • Login
  • US Flag 
01:35PM EDT


 

Airport Tracker/Info


-or-


 

Live Flight TrackerFlight Track Log ✈ UAL4335 ✈ 27-Apr-2013 ✈ KIAH - KPIT

Flight Track Log - Related Links

Times and Time Zones

All times are in EDT time to prevent confusion due to time zone crossing. See the UAL4335 flight status page for this flight to view local times or setup timezone preferences in your user account.

Time Position Orientation Groundspeed Altitude Reporting Facility
EDT Latitude Longitude Course Direction KTS MPH feet Rate Location/Type
02:25PM 29.9594 -95.3414 90° East 166 191 700  Level Houston Center
02:26PM 29.9456 -95.3044 113° Southeast 193 222 2,200 1,740 Climbing Houston Center
02:26PM 29.9411 -95.2800 102° East 199 229 2,600 1,740 Climbing Houston Center
02:27PM 29.9467 -95.2272 83° East 267 307 4,000 2,100 Climbing Houston Center
02:27PM 29.9486 -95.1953 86° East 258 297 4,800 1,560 Climbing Houston Center
02:28PM 29.9531 -95.1372 85° East 262 302 5,600 1,440 Climbing Houston Center
02:28PM 29.9564 -95.1106 82° East 264 304 6,300 2,160 Climbing Houston Center
02:29PM 29.9834 -94.7797 90° East  Level FlightAware Approximate
02:29PM 29.9633 -95.0186 85° East 283 326 8,700  Level Houston Center
02:30PM 29.9833 -94.6413 90° East  Level FlightAware Approximate
02:30PM 29.9669 -94.9250 87° East 290 334 11,400  Level Houston Center
02:31PM 29.9834 -94.5029 90° East  Level FlightAware Approximate
02:32PM 29.9725 -94.8333 86° East 286 329 13,600  Level Houston Center
02:33PM 29.9761 -94.7403 87° East 289 333 15,600 1,860 Climbing Houston Center
02:34PM 29.9806 -94.6436 87° East 299 344 17,500 1,680 Climbing Houston Center
02:35PM 29.9872 -94.5211 86° East 318 366 19,100 1,380 Climbing Houston Center
02:36PM 29.9914 -94.4175 87° East 334 384 20,400 1,200 Climbing Houston Center
02:37PM 29.9958 -94.3022 87° East 357 411 21,700 1,200 Climbing Houston Center
02:38PM 30.0114 -94.1814 82° East 377 434 22,900 1,260 Climbing Houston Center
02:39PM 30.0300 -94.0311 82° East 394 453 24,400 960 Climbing Houston Center
02:40PM 30.0467 -93.9014 82° East 409 471 25,000 240 Climbing Houston Center
02:41PM 30.0631 -93.7619 82° East 437 503 25,000  Level Houston Center
02:42PM 30.0808 -93.6150 82° East 463 533 25,000  Level Houston Center
02:43PM 30.0983 -93.4653 82° East 477 549 25,000  Level Houston Center
02:44PM 30.1194 -93.2831 82° East 485 558 25,000  Level Houston Center
02:45PM 30.1383 -93.1317 82° East 482 555 25,000  Level Houston Center
02:46PM 30.1653 -92.9819 78° East 481 554 25,000  Level Houston Center
02:47PM 30.1944 -92.8339 77° East 477 549 25,000  Level Houston Center
02:48PM 30.2236 -92.6847 77° East 478 550 25,000  Level Houston Center
02:49PM 30.2583 -92.5042 77° East 480 552 25,000  Level Houston Center
02:50PM 30.2875 -92.3533 77° East 481 554 25,000  Level Houston Center
02:51PM 30.3417 -92.2144 66° East 482 555 25,000  Level Houston Center
02:52PM 30.4094 -92.0800 60° Northeast 484 557 25,000  Level Houston Center
02:53PM 30.4758 -91.9458 60° Northeast 482 555 25,000  Level Houston Center
02:54PM 30.5575 -91.7847 59° Northeast 484 557 25,000  Level Houston Center
02:55PM 30.6256 -91.6500 60° Northeast 487 560 25,000  Level Houston Center
02:56PM 30.6919 -91.5164 60° Northeast 482 555 25,000  Level Houston Center
02:57PM 30.7581 -91.3817 60° Northeast 481 554 25,000  Level Houston Center
02:58PM 30.8239 -91.2478 60° Northeast 480 552 25,000  Level Houston Center
02:59PM 30.8908 -91.1133 60° Northeast 482 555 25,000 -60 Level Houston Center
03:00PM 30.9614 -90.9681 60° Northeast 480 552 24,900  Descending Houston Center
03:01PM 31.0281 -90.8317 60° Northeast 482 555 25,000  Climbing Houston Center
03:02PM 31.0928 -90.6969 61° Northeast 479 551 25,000  Level Houston Center
03:04PM 31.1708 -90.5375 60° Northeast 473 544 25,000  Level Houston Center
03:05PM 31.2325 -90.4069 61° Northeast 462 532 25,000  Level Houston Center
03:06PM 31.2958 -90.2781 60° Northeast 457 526 25,000  Level Houston Center
03:07PM 31.3783 -90.1608 50° Northeast 466 536 25,000  Level Houston Center
03:08PM 31.4656 -90.0444 49° Northeast 471 542 25,000  Level Houston Center
03:09PM 31.5542 -89.9267 49° Northeast 480 552 25,000  Level Houston Center
03:09PM 31.6372 -89.8108 50° Northeast 486 559 25,000  Level Memphis Center
03:10PM 31.7244 -89.6956 48° Northeast 486 559 25,000  Level Memphis Center
03:11PM 31.8136 -89.5750 49° Northeast 486 559 25,000  Level Memphis Center
03:12PM 31.8347 -89.5472 48° Northeast 483 556 25,000  Level Houston Center
03:12PM 31.9025 -89.4569 48° Northeast 486 559 25,000  Level Memphis Center
03:13PM 31.9914 -89.3383 49° Northeast 486 559 25,000  Level Memphis Center
03:14PM 32.0800 -89.2147 50° Northeast 486 559 25,000  Level Memphis Center
03:15PM 32.1708 -89.0958 48° Northeast 491 565 25,000  Level Memphis Center
03:16PM 32.2592 -88.9742 49° Northeast 491 565 25,000  Level Memphis Center
03:17PM 32.3394 -88.8622 50° Northeast 491 565 25,000  Level Memphis Center
03:18PM 32.4256 -88.7403 50° Northeast 485 558 25,000  Level Memphis Center
03:19PM 32.5136 -88.6131 51° Northeast 491 565 25,000  Level Memphis Center
03:20PM 32.5994 -88.4881 51° Northeast 485 558 25,000  Level Memphis Center
03:21PM 32.6853 -88.3653 50° Northeast 480 552 25,000  Level Memphis Center
03:22PM 32.7728 -88.2375 51° Northeast 480 552 25,000  Level Memphis Center
03:25PM 32.9569 -87.9081 56° Northeast 495 570 25,000  Level Atlanta Center
03:26PM 33.0236 -87.7822 58° Northeast 491 565 25,000  Level Atlanta Center
03:27PM 33.1028 -87.6494 55° Northeast 491 565 25,000  Level Atlanta Center
03:28PM 33.1794 -87.5161 55° Northeast 491 565 25,000  Level Atlanta Center
03:29PM 33.2564 -87.3825 55° Northeast 491 565 25,000  Level Atlanta Center
03:30PM 33.3453 -87.2592 49° Northeast 491 565 25,000  Level Atlanta Center
03:31PM 33.4400 -87.1381 47° Northeast 491 565 25,000  Level Atlanta Center
03:32PM 33.5347 -87.0219 46° Northeast 491 565 25,000  Level Atlanta Center
03:33PM 33.6275 -86.9003 47° Northeast 491 565 25,000  Level Atlanta Center
03:34PM 33.7219 -86.7836 46° Northeast 491 565 25,000  Level Atlanta Center
03:35PM 33.8164 -86.6617 47° Northeast 491 565 25,000  Level Atlanta Center
03:36PM 33.9108 -86.5419 46° Northeast 491 565 25,000  Level Atlanta Center
03:37PM 34.0050 -86.4219 47° Northeast 491 565 25,000  Level Atlanta Center
03:38PM 34.0992 -86.3042 46° Northeast 491 565 25,000  Level Atlanta Center
03:39PM 34.2039 -86.1661 47° Northeast 497 572 25,000  Level Atlanta Center
03:40PM 34.2997 -86.0481 45° Northeast 492 566 25,000  Level Atlanta Center
03:41PM 34.3914 -85.9242 48° Northeast 492 566 25,000  Level Atlanta Center
03:42PM 34.4850 -85.8053 46° Northeast 492 566 25,000  Level Atlanta Center
03:43PM 34.5722 -85.6786 50° Northeast 486 559 25,000  Level Atlanta Center
03:44PM 34.6431 -85.5283 60° Northeast 491 565 25,000  Level Atlanta Center
03:45PM 34.7094 -85.3756 62° Northeast 502 578 25,000  Level Atlanta Center
03:46PM 34.7778 -85.2272 61° Northeast 502 578 25,000  Level Atlanta Center
03:47PM 34.8603 -85.1019 51° Northeast 488 562 25,000  Level Atlanta Center
03:48PM 34.9572 -84.9917 43° Northeast 469 540 25,000  Level Atlanta Center
03:49PM 35.0519 -84.8836 43° Northeast 469 540 25,000  Level Atlanta Center
03:50PM 35.1506 -84.7728 43° Northeast 464 534 25,000  Level Atlanta Center
03:51PM 35.2431 -84.6644 44° Northeast 464 534 25,000  Level Atlanta Center
03:52PM 35.3375 -84.5556 43° Northeast 464 534 25,000  Level Atlanta Center
03:53PM 35.4339 -84.4467 43° Northeast 464 534 25,000  Level Atlanta Center
03:54PM 35.5261 -84.3347 45° Northeast 464 534 25,000  Level Atlanta Center
03:55PM 35.6222 -84.2253 43° Northeast 464 534 25,000  Level Atlanta Center
03:56PM 35.7161 -84.1181 43° Northeast 464 534 25,000  Level Atlanta Center
03:57PM 35.8039 -84.0158 43° Northeast 464 534 25,000  Level Atlanta Center
03:58PM 35.8997 -83.9081 42° Northeast 464 534 25,000  Level Atlanta Center
03:59PM 36.0122 -83.8283 30° Northeast 464 534 25,000  Level Atlanta Center
04:00PM 36.1267 -83.7586 26° Northeast 459 528 25,000  Level Atlanta Center
04:01PM 36.2392 -83.6861 27° Northeast 453 521 25,000  Level Atlanta Center
04:02PM 36.3642 -83.6056 27° Northeast 453 521 25,000  Level Atlanta Center
04:02PM 36.4033 -83.5794 28° Northeast 461 531 25,000  Level Indianapolis Center
04:03PM 36.5147 -83.5069 28° Northeast 463 533 25,000  Level Indianapolis Center
04:04PM 36.6317 -83.4339 27° Northeast 464 534 25,000  Level Indianapolis Center
04:05PM 36.7489 -83.3572 28° Northeast 470 541 25,000  Level Indianapolis Center
04:06PM 36.8686 -83.2808 27° Northeast 478 550 25,000  Level Indianapolis Center
04:07PM 36.9883 -83.2028 28° Northeast 477 549 25,000  Level Indianapolis Center
04:08PM 37.1092 -83.1239 27° Northeast 479 551 25,000  Level Indianapolis Center
04:09PM 37.2314 -83.0456 27° Northeast 486 559 25,000  Level Indianapolis Center
04:10PM 37.3503 -82.9672 28° Northeast 479 551 25,000  Level Indianapolis Center
04:11PM 37.4853 -82.8786 28° Northeast 464 534 25,000  Level Indianapolis Center
04:12PM 37.6036 -82.8008 28° Northeast 473 544 25,000  Level Indianapolis Center
04:13PM 37.7219 -82.7219 28° Northeast 478 550 25,000  Level Indianapolis Center
04:14PM 37.8358 -82.6339 31° Northeast 476 548 25,000  Level Indianapolis Center
04:15PM 37.9478 -82.5486 31° Northeast 469 540 25,000  Level Indianapolis Center
04:16PM 38.0606 -82.4597 32° Northeast 473 544 25,000  Level Indianapolis Center
04:17PM 38.1758 -82.3689 32° Northeast 472 543 25,000  Level Indianapolis Center
04:19PM 38.2867 -82.2814 32° Northeast 468 539 25,000  Level Indianapolis Center
04:20PM 38.3975 -82.1958 31° Northeast 464 534 25,000  Level Indianapolis Center
04:21PM 38.5081 -82.1081 32° Northeast 464 534 25,000  Level Indianapolis Center
04:22PM 38.6186 -82.0219 31° Northeast 462 532 25,000  Level Indianapolis Center
04:23PM 38.7256 -81.9367 32° Northeast 451 519 25,000  Level Indianapolis Center
04:24PM 38.8317 -81.8525 32° Northeast 442 509 25,000 -180 Level Indianapolis Center
04:25PM 38.9367 -81.7686 32° Northeast 439 505 24,700 -540 Descending Indianapolis Center
04:26PM 39.0411 -81.6844 32° Northeast 438 504 24,000 -360 Descending Indianapolis Center
04:27PM 39.1672 -81.5831 32° Northeast 439 505 24,000 -540 Level Indianapolis Center
04:28PM 39.2689 -81.4997 32° Northeast 433 498 23,000 -1,200 Descending Indianapolis Center
04:29PM 39.3683 -81.4197 32° Northeast 421 484 21,600 -1,020 Descending Indianapolis Center
04:30PM 39.4672 -81.3400 32° Northeast 416 479 21,000 -480 Descending Indianapolis Center
04:30PM 39.5042 -81.3094 33° Northeast 424 488 21,000  Level Cleveland Center
04:31PM 39.6006 -81.2217 35° Northeast 424 488 21,000  Level Cleveland Center
04:32PM 39.6969 -81.1281 37° Northeast 424 488 21,000  Level Cleveland Center
04:33PM 39.7931 -81.0369 36° Northeast 429 494 21,000 -900 Level Cleveland Center
04:34PM 39.8853 -80.9456 37° Northeast 429 494 19,200 -2,580 Descending Cleveland Center
04:35PM 39.9731 -80.8622 36° Northeast 417 480 15,900 -3,360 Descending Cleveland Center
04:36PM 40.0586 -80.7839 35° Northeast 388 447 12,500 -2,460 Descending Cleveland Center
04:37PM 40.1483 -80.7297 25° Northeast 366 421 11,000 -1,200 Descending Cleveland Center
04:38PM 40.2275 -80.6864 23° Northeast 351 404 10,200 -840 Descending Cleveland Center
04:39PM 40.3069 -80.6403 24° Northeast 328 377 9,400 -1,620 Descending Cleveland Center
04:40PM 40.3797 -80.5994 23° Northeast 297 342 7,000 -2,280 Descending Cleveland Center
04:41PM 40.4467 -80.5614 23° Northeast 272 313 4,900 -1,740 Descending Cleveland Center
04:42PM 40.5069 -80.5122 32° Northeast 258 297 3,600 -1,320 Descending Cleveland Center